Calvinia, South Africa

7:35 AM SAST on August 28, 2015 (GMT +0200)
Calvinia | | Change Station
CLOSE
Current Station
Airport
Location: Calvinia,
Elevation: 3199 ft
Nearby Weather Stations

Elev 3199 ft 31.48 °S, 19.76 °E | Updated 24 minutes ago

Fog
Fog
48 °F
Feels Like 48 °F
N
1
Wind Variable Wind from SSE

Today
High -- | Low -- °F
--% Chance of Precip.
Yesterday
High -- | Low -- °F
Precip. -- in
7:02 AM 6:22 PM
Waxing Gibbous, 96% visible
Pressure 30.06 in
Visibility 0.4 miles
Clouds Scattered Clouds 100 ft
Overcast 800 ft
Dew Point 45 °F
Humidity 87%
Rainfall 0.00 in
Snow Depth Not available.
UV 0 out of 12
Pollen Not available.
Air Quality Not available.
Flu Activity Not available.
SPECI FACV 280511Z 15001KT 0600 FG SCT001 OVC008 09/07 Q1018
Pressure 30.06 in
Visibility 0.4 miles
Clouds Scattered Clouds 100 ft
Overcast 800 ft
Dew Point 45 °F
Humidity 87%
Rainfall 0.00 in
Snow Depth Not available.
UV 0 out of 12
Pollen Not available.
Air Quality Not available.
Flu Activity Not available.
SPECI FACV 280511Z 15001KT 0600 FG SCT001 OVC008 09/07 Q1018

10-Day Weather Forecast

×

Almanac

Astronomy

Aug. 28, 2015 Rise Set
Actual Time
Civil Twilight
Nautical Twilight
Astronomical Twilight
Moon
Length of Visible Light
Length of Day
Tomorrow will be .
, % of the Moon is Illuminated

Today's Extremes

Country Highs Country Lows

Community

WunderPhotos

Upload Photos

1,850,341 photos uploaded!

WunderBlogs® & News

Nearby

Air Quality

  Air Quality AQ Index Pollutant
Not available.

Snow Depth

Station Depth Elevation

Earthquake Activity

City Distance Mag. Time & Date
Minimum magnitude displayed is 2.5.

Coastal Water Temperatures

Place Temperature

Stations

Nearby Weather Stations

Station Location Temp. Windchill Dew Point Humidity Wind Precip. Elev Updated Type